sensor_id;sensor_type;location;lat;lon;timestamp;P1;durP1;ratioP1;P2;durP2;ratioP2
1370;SDS011;14306;49.942;11.570;2022-08-19T00:01:33;64.47;;;42.57;;
1370;SDS011;14306;49.942;11.570;2022-08-19T00:04:04;80.03;;;43.20;;
1370;SDS011;14306;49.942;11.570;2022-08-19T00:06:35;74.60;;;44.83;;
1370;SDS011;14306;49.942;11.570;2022-08-19T00:09:04;62.60;;;39.27;;
1370;SDS011;14306;49.942;11.570;2022-08-19T00:11:34;60.33;;;38.10;;
1370;SDS011;14306;49.942;11.570;2022-08-19T00:14:05;58.03;;;38.20;;
1370;SDS011;14306;49.942;11.570;2022-08-19T00:16:36;52.57;;;37.00;;
1370;SDS011;14306;49.942;11.570;2022-08-19T00:19:05;58.60;;;37.97;;
1370;SDS011;14306;49.942;11.570;2022-08-19T00:21:34;56.43;;;36.60;;
1370;SDS011;14306;49.942;11.570;2022-08-19T00:24:04;51.40;;;36.20;;
1370;SDS011;14306;49.942;11.570;2022-08-19T00:26:33;52.30;;;34.70;;
1370;SDS011;14306;49.942;11.570;2022-08-19T00:29:02;48.53;;;33.70;;
1370;SDS011;14306;49.942;11.570;2022-08-19T00:31:33;47.43;;;34.53;;
1370;SDS011;14306;49.942;11.570;2022-08-19T00:34:02;52.53;;;36.67;;
1370;SDS011;14306;49.942;11.570;2022-08-19T00:36:30;54.37;;;36.67;;
1370;SDS011;14306;49.942;11.570;2022-08-19T00:38:59;53.00;;;35.50;;
1370;SDS011;14306;49.942;11.570;2022-08-19T00:41:28;53.77;;;35.67;;
1370;SDS011;14306;49.942;11.570;2022-08-19T00:43:57;64.07;;;39.03;;
1370;SDS011;14306;49.942;11.570;2022-08-19T00:46:29;61.70;;;40.87;;
1370;SDS011;14306;49.942;11.570;2022-08-19T00:48:57;57.90;;;38.27;;
1370;SDS011;14306;49.942;11.570;2022-08-19T00:51:27;60.17;;;39.17;;
1370;SDS011;14306;49.942;11.570;2022-08-19T00:53:58;66.33;;;40.90;;
1370;SDS011;14306;49.942;11.570;2022-08-19T00:56:28;59.07;;;37.50;;
1370;SDS011;14306;49.942;11.570;2022-08-19T00:58:58;61.90;;;38.17;;
1370;SDS011;14306;49.942;11.570;2022-08-19T01:01:29;61.43;;;35.90;;
1370;SDS011;14306;49.942;11.570;2022-08-19T01:03:57;63.33;;;41.17;;
1370;SDS011;14306;49.942;11.570;2022-08-19T01:06:26;60.77;;;38.73;;
1370;SDS011;14306;49.942;11.570;2022-08-19T01:08:54;59.93;;;37.10;;
1370;SDS011;14306;49.942;11.570;2022-08-19T01:11:23;54.87;;;36.90;;
1370;SDS011;14306;49.942;11.570;2022-08-19T01:13:51;53.53;;;34.40;;
1370;SDS011;14306;49.942;11.570;2022-08-19T01:16:22;70.17;;;37.50;;
1370;SDS011;14306;49.942;11.570;2022-08-19T01:18:54;53.67;;;34.97;;
1370;SDS011;14306;49.942;11.570;2022-08-19T01:21:24;56.37;;;35.20;;
1370;SDS011;14306;49.942;11.570;2022-08-19T01:24:00;59.10;;;35.20;;
1370;SDS011;14306;49.942;11.570;2022-08-19T01:26:28;57.83;;;36.57;;
1370;SDS011;14306;49.942;11.570;2022-08-19T01:28:58;64.50;;;38.50;;
1370;SDS011;14306;49.942;11.570;2022-08-19T01:31:30;54.53;;;35.17;;
1370;SDS011;14306;49.942;11.570;2022-08-19T01:33:59;49.37;;;34.90;;
1370;SDS011;14306;49.942;11.570;2022-08-19T01:36:29;59.03;;;39.63;;
1370;SDS011;14306;49.942;11.570;2022-08-19T01:39:00;59.10;;;37.63;;
1370;SDS011;14306;49.942;11.570;2022-08-19T01:41:30;60.40;;;38.43;;
1370;SDS011;14306;49.942;11.570;2022-08-19T01:43:58;60.70;;;40.43;;
1370;SDS011;14306;49.942;11.570;2022-08-19T01:46:42;66.00;;;38.33;;
1370;SDS011;14306;49.942;11.570;2022-08-19T01:49:11;61.03;;;37.40;;
1370;SDS011;14306;49.942;11.570;2022-08-19T01:51:39;51.10;;;35.23;;
1370;SDS011;14306;49.942;11.570;2022-08-19T01:54:09;55.03;;;36.53;;
1370;SDS011;14306;49.942;11.570;2022-08-19T01:56:48;58.93;;;37.67;;
1370;SDS011;14306;49.942;11.570;2022-08-19T01:59:18;60.47;;;41.43;;
1370;SDS011;14306;49.942;11.570;2022-08-19T02:01:49;54.23;;;38.50;;
1370;SDS011;14306;49.942;11.570;2022-08-19T02:04:17;57.93;;;38.10;;
1370;SDS011;14306;49.942;11.570;2022-08-19T02:06:45;52.67;;;37.00;;
1370;SDS011;14306;49.942;11.570;2022-08-19T02:09:15;53.30;;;37.00;;
1370;SDS011;14306;49.942;11.570;2022-08-19T02:11:44;64.03;;;39.70;;
1370;SDS011;14306;49.942;11.570;2022-08-19T02:14:12;58.10;;;39.10;;
1370;SDS011;14306;49.942;11.570;2022-08-19T02:16:40;66.70;;;38.27;;
1370;SDS011;14306;49.942;11.570;2022-08-19T02:19:08;59.57;;;36.73;;
1370;SDS011;14306;49.942;11.570;2022-08-19T02:21:37;56.83;;;37.73;;
1370;SDS011;14306;49.942;11.570;2022-08-19T02:24:05;54.57;;;35.10;;
1370;SDS011;14306;49.942;11.570;2022-08-19T02:26:34;57.30;;;37.90;;
1370;SDS011;14306;49.942;11.570;2022-08-19T02:29:02;56.17;;;38.10;;
1370;SDS011;14306;49.942;11.570;2022-08-19T02:31:31;51.60;;;34.03;;
1370;SDS011;14306;49.942;11.570;2022-08-19T02:33:59;50.50;;;33.00;;
1370;SDS011;14306;49.942;11.570;2022-08-19T02:36:28;49.20;;;34.53;;
1370;SDS011;14306;49.942;11.570;2022-08-19T02:38:57;52.90;;;36.07;;
1370;SDS011;14306;49.942;11.570;2022-08-19T02:41:25;46.80;;;33.90;;
1370;SDS011;14306;49.942;11.570;2022-08-19T02:43:56;46.10;;;32.53;;
1370;SDS011;14306;49.942;11.570;2022-08-19T02:46:46;40.53;;;30.97;;
1370;SDS011;14306;49.942;11.570;2022-08-19T02:49:18;47.77;;;30.80;;
1370;SDS011;14306;49.942;11.570;2022-08-19T02:51:47;40.57;;;29.20;;
1370;SDS011;14306;49.942;11.570;2022-08-19T02:54:15;46.03;;;30.40;;
1370;SDS011;14306;49.942;11.570;2022-08-19T02:56:44;41.67;;;30.80;;
1370;SDS011;14306;49.942;11.570;2022-08-19T02:59:14;44.43;;;30.50;;
1370;SDS011;14306;49.942;11.570;2022-08-19T03:01:42;48.00;;;32.20;;
1370;SDS011;14306;49.942;11.570;2022-08-19T03:04:11;43.30;;;30.60;;
1370;SDS011;14306;49.942;11.570;2022-08-19T03:06:43;39.83;;;29.87;;
1370;SDS011;14306;49.942;11.570;2022-08-19T03:09:13;37.70;;;28.13;;
1370;SDS011;14306;49.942;11.570;2022-08-19T03:11:42;39.73;;;30.20;;
1370;SDS011;14306;49.942;11.570;2022-08-19T03:14:10;38.37;;;29.80;;
1370;SDS011;14306;49.942;11.570;2022-08-19T03:16:41;43.57;;;30.40;;
1370;SDS011;14306;49.942;11.570;2022-08-19T03:19:11;41.80;;;30.20;;
1370;SDS011;14306;49.942;11.570;2022-08-19T03:21:41;37.87;;;28.53;;
1370;SDS011;14306;49.942;11.570;2022-08-19T03:24:11;36.97;;;28.13;;
1370;SDS011;14306;49.942;11.570;2022-08-19T03:26:41;45.07;;;31.50;;
1370;SDS011;14306;49.942;11.570;2022-08-19T03:29:11;44.50;;;30.73;;
1370;SDS011;14306;49.942;11.570;2022-08-19T03:31:57;43.07;;;30.93;;
1370;SDS011;14306;49.942;11.570;2022-08-19T03:34:27;40.60;;;30.13;;
1370;SDS011;14306;49.942;11.570;2022-08-19T03:36:58;40.67;;;30.57;;
1370;SDS011;14306;49.942;11.570;2022-08-19T03:39:30;40.03;;;29.67;;
1370;SDS011;14306;49.942;11.570;2022-08-19T03:41:59;45.87;;;32.00;;
1370;SDS011;14306;49.942;11.570;2022-08-19T03:44:48;36.57;;;28.47;;
1370;SDS011;14306;49.942;11.570;2022-08-19T03:47:18;38.27;;;29.73;;
1370;SDS011;14306;49.942;11.570;2022-08-19T03:49:46;43.67;;;30.57;;
1370;SDS011;14306;49.942;11.570;2022-08-19T03:52:14;39.80;;;28.57;;
1370;SDS011;14306;49.942;11.570;2022-08-19T03:54:42;44.03;;;30.37;;
1370;SDS011;14306;49.942;11.570;2022-08-19T03:57:11;45.47;;;30.70;;
1370;SDS011;14306;49.942;11.570;2022-08-19T03:59:39;41.87;;;30.27;;
1370;SDS011;14306;49.942;11.570;2022-08-19T04:02:08;42.53;;;32.30;;
1370;SDS011;14306;49.942;11.570;2022-08-19T04:04:41;47.37;;;34.03;;
1370;SDS011;14306;49.942;11.570;2022-08-19T04:07:11;45.07;;;33.27;;
1370;SDS011;14306;49.942;11.570;2022-08-19T04:09:42;46.00;;;31.83;;
1370;SDS011;14306;49.942;11.570;2022-08-19T04:12:11;44.40;;;30.27;;
1370;SDS011;14306;49.942;11.570;2022-08-19T04:14:40;44.83;;;33.00;;
1370;SDS011;14306;49.942;11.570;2022-08-19T04:17:08;46.20;;;31.93;;
1370;SDS011;14306;49.942;11.570;2022-08-19T04:19:38;44.07;;;32.10;;
1370;SDS011;14306;49.942;11.570;2022-08-19T04:22:09;41.50;;;32.07;;
1370;SDS011;14306;49.942;11.570;2022-08-19T04:24:38;41.47;;;30.90;;
1370;SDS011;14306;49.942;11.570;2022-08-19T04:27:06;37.30;;;27.63;;
1370;SDS011;14306;49.942;11.570;2022-08-19T04:29:34;40.20;;;28.77;;
1370;SDS011;14306;49.942;11.570;2022-08-19T04:32:06;39.90;;;28.53;;
1370;SDS011;14306;49.942;11.570;2022-08-19T04:34:35;39.60;;;30.07;;
1370;SDS011;14306;49.942;11.570;2022-08-19T04:37:26;39.73;;;29.40;;
1370;SDS011;14306;49.942;11.570;2022-08-19T04:40:00;39.67;;;29.40;;
1370;SDS011;14306;49.942;11.570;2022-08-19T04:42:47;40.00;;;29.30;;
1370;SDS011;14306;49.942;11.570;2022-08-19T04:45:16;38.43;;;28.40;;
1370;SDS011;14306;49.942;11.570;2022-08-19T04:47:48;34.47;;;26.33;;
1370;SDS011;14306;49.942;11.570;2022-08-19T04:50:36;33.53;;;27.13;;
1370;SDS011;14306;49.942;11.570;2022-08-19T04:53:09;35.73;;;26.67;;
1370;SDS011;14306;49.942;11.570;2022-08-19T04:55:39;33.40;;;26.10;;
1370;SDS011;14306;49.942;11.570;2022-08-19T04:58:08;29.43;;;25.80;;
1370;SDS011;14306;49.942;11.570;2022-08-19T05:00:37;32.47;;;26.30;;
1370;SDS011;14306;49.942;11.570;2022-08-19T05:03:06;32.77;;;25.37;;
1370;SDS011;14306;49.942;11.570;2022-08-19T05:05:37;29.17;;;24.37;;
1370;SDS011;14306;49.942;11.570;2022-08-19T05:08:12;29.57;;;25.17;;
1370;SDS011;14306;49.942;11.570;2022-08-19T05:10:56;28.90;;;23.80;;
1370;SDS011;14306;49.942;11.570;2022-08-19T05:13:25;32.13;;;25.77;;
1370;SDS011;14306;49.942;11.570;2022-08-19T05:15:54;33.07;;;25.07;;
1370;SDS011;14306;49.942;11.570;2022-08-19T05:18:24;35.20;;;26.37;;
1370;SDS011;14306;49.942;11.570;2022-08-19T05:21:12;28.77;;;22.90;;
1370;SDS011;14306;49.942;11.570;2022-08-19T05:24:02;32.80;;;24.30;;
1370;SDS011;14306;49.942;11.570;2022-08-19T05:26:34;28.60;;;22.20;;
1370;SDS011;14306;49.942;11.570;2022-08-19T05:29:02;34.17;;;26.53;;
1370;SDS011;14306;49.942;11.570;2022-08-19T05:31:32;32.17;;;25.63;;
1370;SDS011;14306;49.942;11.570;2022-08-19T05:34:00;31.07;;;24.73;;
1370;SDS011;14306;49.942;11.570;2022-08-19T05:36:43;31.50;;;24.27;;
1370;SDS011;14306;49.942;11.570;2022-08-19T05:39:15;26.00;;;21.80;;
1370;SDS011;14306;49.942;11.570;2022-08-19T05:41:47;34.37;;;24.60;;
1370;SDS011;14306;49.942;11.570;2022-08-19T05:44:18;30.23;;;24.30;;
1370;SDS011;14306;49.942;11.570;2022-08-19T05:46:48;35.63;;;27.10;;
1370;SDS011;14306;49.942;11.570;2022-08-19T05:49:19;32.07;;;26.13;;
1370;SDS011;14306;49.942;11.570;2022-08-19T05:51:49;34.43;;;25.20;;
1370;SDS011;14306;49.942;11.570;2022-08-19T05:54:18;33.73;;;25.60;;
1370;SDS011;14306;49.942;11.570;2022-08-19T05:56:48;31.57;;;24.33;;
1370;SDS011;14306;49.942;11.570;2022-08-19T05:59:16;31.47;;;26.13;;
1370;SDS011;14306;49.942;11.570;2022-08-19T06:01:46;33.80;;;24.83;;
1370;SDS011;14306;49.942;11.570;2022-08-19T06:04:17;33.30;;;25.77;;
1370;SDS011;14306;49.942;11.570;2022-08-19T06:06:49;40.63;;;26.07;;
1370;SDS011;14306;49.942;11.570;2022-08-19T06:09:20;36.77;;;25.33;;
1370;SDS011;14306;49.942;11.570;2022-08-19T06:11:50;35.43;;;25.70;;
1370;SDS011;14306;49.942;11.570;2022-08-19T06:14:22;33.97;;;26.70;;
1370;SDS011;14306;49.942;11.570;2022-08-19T06:16:53;34.33;;;26.03;;
1370;SDS011;14306;49.942;11.570;2022-08-19T06:19:22;31.57;;;24.90;;
1370;SDS011;14306;49.942;11.570;2022-08-19T06:21:52;50.57;;;27.10;;
1370;SDS011;14306;49.942;11.570;2022-08-19T06:24:22;30.60;;;24.50;;
1370;SDS011;14306;49.942;11.570;2022-08-19T06:26:53;34.27;;;26.00;;
1370;SDS011;14306;49.942;11.570;2022-08-19T06:29:27;28.43;;;24.03;;
1370;SDS011;14306;49.942;11.570;2022-08-19T06:31:57;33.00;;;25.70;;
1370;SDS011;14306;49.942;11.570;2022-08-19T06:34:27;33.13;;;25.53;;
1370;SDS011;14306;49.942;11.570;2022-08-19T06:36:58;33.63;;;26.93;;
1370;SDS011;14306;49.942;11.570;2022-08-19T06:39:30;37.83;;;26.53;;
1370;SDS011;14306;49.942;11.570;2022-08-19T06:42:01;34.53;;;26.27;;
1370;SDS011;14306;49.942;11.570;2022-08-19T06:44:36;36.80;;;27.00;;
1370;SDS011;14306;49.942;11.570;2022-08-19T06:47:09;37.10;;;26.90;;
1370;SDS011;14306;49.942;11.570;2022-08-19T06:49:50;37.23;;;26.83;;
1370;SDS011;14306;49.942;11.570;2022-08-19T06:52:26;37.00;;;28.00;;
1370;SDS011;14306;49.942;11.570;2022-08-19T06:54:55;30.17;;;24.20;;
1370;SDS011;14306;49.942;11.570;2022-08-19T06:57:25;40.50;;;27.03;;
1370;SDS011;14306;49.942;11.570;2022-08-19T06:59:53;37.17;;;27.23;;
1370;SDS011;14306;49.942;11.570;2022-08-19T07:02:23;36.30;;;26.20;;
1370;SDS011;14306;49.942;11.570;2022-08-19T07:04:52;35.03;;;26.13;;
1370;SDS011;14306;49.942;11.570;2022-08-19T07:07:22;32.60;;;25.70;;
1370;SDS011;14306;49.942;11.570;2022-08-19T07:09:51;36.53;;;26.00;;
1370;SDS011;14306;49.942;11.570;2022-08-19T07:12:27;33.80;;;26.07;;
1370;SDS011;14306;49.942;11.570;2022-08-19T07:14:57;31.00;;;24.47;;
1370;SDS011;14306;49.942;11.570;2022-08-19T07:17:27;38.87;;;25.13;;
1370;SDS011;14306;49.942;11.570;2022-08-19T07:19:56;32.97;;;24.07;;
1370;SDS011;14306;49.942;11.570;2022-08-19T07:22:32;29.73;;;24.10;;
1370;SDS011;14306;49.942;11.570;2022-08-19T07:25:00;33.57;;;23.67;;
1370;SDS011;14306;49.942;11.570;2022-08-19T07:27:31;30.10;;;23.30;;
1370;SDS011;14306;49.942;11.570;2022-08-19T07:30:00;32.97;;;25.13;;
1370;SDS011;14306;49.942;11.570;2022-08-19T07:32:29;34.23;;;22.07;;
1370;SDS011;14306;49.942;11.570;2022-08-19T07:34:58;28.60;;;22.33;;
1370;SDS011;14306;49.942;11.570;2022-08-19T07:37:27;27.60;;;21.40;;
1370;SDS011;14306;49.942;11.570;2022-08-19T07:39:58;28.53;;;21.47;;
1370;SDS011;14306;49.942;11.570;2022-08-19T07:42:27;29.43;;;22.83;;
1370;SDS011;14306;49.942;11.570;2022-08-19T07:44:57;35.10;;;22.03;;
1370;SDS011;14306;49.942;11.570;2022-08-19T07:47:26;26.93;;;20.73;;
1370;SDS011;14306;49.942;11.570;2022-08-19T07:50:15;29.90;;;22.30;;
1370;SDS011;14306;49.942;11.570;2022-08-19T07:52:45;29.30;;;21.50;;
1370;SDS011;14306;49.942;11.570;2022-08-19T07:55:15;31.70;;;24.23;;
1370;SDS011;14306;49.942;11.570;2022-08-19T07:58:05;30.37;;;23.70;;
1370;SDS011;14306;49.942;11.570;2022-08-19T08:00:35;31.20;;;23.10;;
1370;SDS011;14306;49.942;11.570;2022-08-19T08:03:03;25.93;;;21.20;;
1370;SDS011;14306;49.942;11.570;2022-08-19T08:05:31;29.90;;;22.30;;
1370;SDS011;14306;49.942;11.570;2022-08-19T08:08:17;29.40;;;23.43;;
1370;SDS011;14306;49.942;11.570;2022-08-19T08:11:14;27.70;;;23.30;;
1370;SDS011;14306;49.942;11.570;2022-08-19T08:13:45;28.23;;;22.83;;
1370;SDS011;14306;49.942;11.570;2022-08-19T08:16:31;27.57;;;22.70;;
1370;SDS011;14306;49.942;11.570;2022-08-19T08:19:13;33.10;;;23.35;;
1370;SDS011;14306;49.942;11.570;2022-08-19T08:21:51;28.10;;;20.97;;
1370;SDS011;14306;49.942;11.570;2022-08-19T08:24:20;27.30;;;20.93;;
1370;SDS011;14306;49.942;11.570;2022-08-19T08:26:54;30.63;;;22.10;;
1370;SDS011;14306;49.942;11.570;2022-08-19T08:29:23;26.70;;;21.77;;
1370;SDS011;14306;49.942;11.570;2022-08-19T08:32:01;24.90;;;19.90;;
1370;SDS011;14306;49.942;11.570;2022-08-19T08:34:40;25.40;;;20.00;;
1370;SDS011;14306;49.942;11.570;2022-08-19T08:37:08;30.90;;;21.97;;
1370;SDS011;14306;49.942;11.570;2022-08-19T08:39:36;26.33;;;20.40;;
1370;SDS011;14306;49.942;11.570;2022-08-19T08:42:06;23.77;;;17.97;;
1370;SDS011;14306;49.942;11.570;2022-08-19T08:44:44;28.20;;;21.63;;
1370;SDS011;14306;49.942;11.570;2022-08-19T08:47:22;25.53;;;19.70;;
1370;SDS011;14306;49.942;11.570;2022-08-19T08:49:53;25.77;;;21.07;;
1370;SDS011;14306;49.942;11.570;2022-08-19T08:52:27;25.43;;;20.47;;
1370;SDS011;14306;49.942;11.570;2022-08-19T08:55:03;26.93;;;20.00;;
1370;SDS011;14306;49.942;11.570;2022-08-19T08:57:41;28.37;;;19.07;;
1370;SDS011;14306;49.942;11.570;2022-08-19T09:00:18;26.43;;;19.67;;
1370;SDS011;14306;49.942;11.570;2022-08-19T09:02:49;25.80;;;20.63;;
1370;SDS011;14306;49.942;11.570;2022-08-19T09:05:20;26.20;;;20.20;;
1370;SDS011;14306;49.942;11.570;2022-08-19T09:07:53;24.87;;;19.20;;
1370;SDS011;14306;49.942;11.570;2022-08-19T09:10:29;22.70;;;18.90;;
1370;SDS011;14306;49.942;11.570;2022-08-19T09:13:11;21.63;;;17.97;;
1370;SDS011;14306;49.942;11.570;2022-08-19T09:15:49;26.33;;;18.83;;
1370;SDS011;14306;49.942;11.570;2022-08-19T09:18:23;25.40;;;19.73;;
1370;SDS011;14306;49.942;11.570;2022-08-19T09:20:55;26.90;;;21.07;;
1370;SDS011;14306;49.942;11.570;2022-08-19T09:23:23;30.00;;;23.40;;
1370;SDS011;14306;49.942;11.570;2022-08-19T09:25:52;26.00;;;21.77;;
1370;SDS011;14306;49.942;11.570;2022-08-19T09:28:20;33.37;;;23.50;;
1370;SDS011;14306;49.942;11.570;2022-08-19T09:30:52;29.50;;;22.07;;
1370;SDS011;14306;49.942;11.570;2022-08-19T09:33:20;27.43;;;21.80;;
1370;SDS011;14306;49.942;11.570;2022-08-19T09:35:50;29.90;;;23.20;;
1370;SDS011;14306;49.942;11.570;2022-08-19T09:38:34;34.47;;;25.00;;
1370;SDS011;14306;49.942;11.570;2022-08-19T09:41:09;34.27;;;25.13;;
1370;SDS011;14306;49.942;11.570;2022-08-19T09:43:40;35.30;;;25.47;;
1370;SDS011;14306;49.942;11.570;2022-08-19T09:46:13;41.60;;;28.80;;
1370;SDS011;14306;49.942;11.570;2022-08-19T09:48:43;36.27;;;27.07;;
1370;SDS011;14306;49.942;11.570;2022-08-19T09:51:17;40.77;;;28.37;;
1370;SDS011;14306;49.942;11.570;2022-08-19T09:53:48;38.10;;;27.60;;
1370;SDS011;14306;49.942;11.570;2022-08-19T09:56:21;40.47;;;28.60;;
1370;SDS011;14306;49.942;11.570;2022-08-19T09:58:50;40.80;;;26.67;;
1370;SDS011;14306;49.942;11.570;2022-08-19T10:01:18;34.90;;;24.53;;
1370;SDS011;14306;49.942;11.570;2022-08-19T10:03:50;35.47;;;26.10;;
1370;SDS011;14306;49.942;11.570;2022-08-19T10:06:22;34.57;;;25.80;;
1370;SDS011;14306;49.942;11.570;2022-08-19T10:09:11;36.93;;;27.40;;
1370;SDS011;14306;49.942;11.570;2022-08-19T10:11:41;40.60;;;27.43;;
1370;SDS011;14306;49.942;11.570;2022-08-19T10:14:20;41.80;;;28.43;;
1370;SDS011;14306;49.942;11.570;2022-08-19T10:16:49;33.30;;;24.30;;
1370;SDS011;14306;49.942;11.570;2022-08-19T10:19:18;30.93;;;22.90;;
1370;SDS011;14306;49.942;11.570;2022-08-19T10:21:53;33.47;;;24.70;;
1370;SDS011;14306;49.942;11.570;2022-08-19T10:24:26;34.10;;;25.50;;
1370;SDS011;14306;49.942;11.570;2022-08-19T10:26:54;32.50;;;25.97;;
1370;SDS011;14306;49.942;11.570;2022-08-19T10:29:25;36.40;;;25.13;;
1370;SDS011;14306;49.942;11.570;2022-08-19T10:31:58;34.50;;;25.13;;
1370;SDS011;14306;49.942;11.570;2022-08-19T10:34:28;33.73;;;23.63;;
1370;SDS011;14306;49.942;11.570;2022-08-19T10:36:59;37.07;;;26.30;;
1370;SDS011;14306;49.942;11.570;2022-08-19T10:39:28;28.93;;;24.60;;
1370;SDS011;14306;49.942;11.570;2022-08-19T10:42:08;27.87;;;22.33;;
1370;SDS011;14306;49.942;11.570;2022-08-19T10:44:36;30.97;;;22.40;;
1370;SDS011;14306;49.942;11.570;2022-08-19T10:47:06;27.63;;;22.37;;
1370;SDS011;14306;49.942;11.570;2022-08-19T10:49:51;27.63;;;22.87;;
1370;SDS011;14306;49.942;11.570;2022-08-19T10:52:39;25.60;;;21.13;;
1370;SDS011;14306;49.942;11.570;2022-08-19T10:55:16;27.97;;;21.07;;
1370;SDS011;14306;49.942;11.570;2022-08-19T10:58:03;24.97;;;20.10;;
1370;SDS011;14306;49.942;11.570;2022-08-19T11:00:35;23.50;;;19.10;;
1370;SDS011;14306;49.942;11.570;2022-08-19T11:03:04;27.10;;;21.23;;
1370;SDS011;14306;49.942;11.570;2022-08-19T11:05:34;34.30;;;19.53;;
1370;SDS011;14306;49.942;11.570;2022-08-19T11:08:07;23.93;;;18.93;;
1370;SDS011;14306;49.942;11.570;2022-08-19T11:10:49;19.67;;;17.57;;
1370;SDS011;14306;49.942;11.570;2022-08-19T11:13:20;23.90;;;18.70;;
1370;SDS011;14306;49.942;11.570;2022-08-19T11:15:55;20.47;;;17.93;;
1370;SDS011;14306;49.942;11.570;2022-08-19T11:18:29;29.20;;;20.20;;
1370;SDS011;14306;49.942;11.570;2022-08-19T11:21:04;23.67;;;19.00;;
1370;SDS011;14306;49.942;11.570;2022-08-19T11:23:34;19.20;;;17.10;;
1370;SDS011;14306;49.942;11.570;2022-08-19T11:26:02;18.73;;;16.70;;
1370;SDS011;14306;49.942;11.570;2022-08-19T11:28:30;20.23;;;17.40;;
1370;SDS011;14306;49.942;11.570;2022-08-19T11:30:58;20.03;;;17.50;;
1370;SDS011;14306;49.942;11.570;2022-08-19T11:33:27;21.97;;;16.77;;
1370;SDS011;14306;49.942;11.570;2022-08-19T11:35:56;19.07;;;15.87;;
1370;SDS011;14306;49.942;11.570;2022-08-19T11:38:26;23.73;;;18.23;;
1370;SDS011;14306;49.942;11.570;2022-08-19T11:40:57;20.67;;;16.67;;
1370;SDS011;14306;49.942;11.570;2022-08-19T11:43:27;20.67;;;17.13;;
1370;SDS011;14306;49.942;11.570;2022-08-19T11:46:03;19.23;;;14.30;;
1370;SDS011;14306;49.942;11.570;2022-08-19T11:48:33;20.60;;;15.20;;
1370;SDS011;14306;49.942;11.570;2022-08-19T11:51:03;24.13;;;16.50;;
1370;SDS011;14306;49.942;11.570;2022-08-19T11:53:34;17.10;;;15.00;;
1370;SDS011;14306;49.942;11.570;2022-08-19T11:56:04;17.27;;;13.77;;
1370;SDS011;14306;49.942;11.570;2022-08-19T11:58:34;19.23;;;14.90;;
1370;SDS011;14306;49.942;11.570;2022-08-19T12:01:04;20.77;;;16.13;;
1370;SDS011;14306;49.942;11.570;2022-08-19T12:03:34;18.00;;;12.67;;
1370;SDS011;14306;49.942;11.570;2022-08-19T12:06:03;12.90;;;10.83;;
1370;SDS011;14306;49.942;11.570;2022-08-19T12:08:32;15.17;;;11.93;;
1370;SDS011;14306;49.942;11.570;2022-08-19T12:11:01;14.73;;;12.30;;
1370;SDS011;14306;49.942;11.570;2022-08-19T12:13:30;15.23;;;11.70;;
1370;SDS011;14306;49.942;11.570;2022-08-19T12:15:58;16.97;;;13.17;;
1370;SDS011;14306;49.942;11.570;2022-08-19T12:18:27;18.97;;;11.10;;
1370;SDS011;14306;49.942;11.570;2022-08-19T12:20:55;15.60;;;12.37;;
1370;SDS011;14306;49.942;11.570;2022-08-19T12:23:23;19.23;;;12.70;;
1370;SDS011;14306;49.942;11.570;2022-08-19T12:25:51;16.07;;;12.37;;
1370;SDS011;14306;49.942;11.570;2022-08-19T12:28:21;13.37;;;10.80;;
1370;SDS011;14306;49.942;11.570;2022-08-19T12:30:52;14.50;;;12.30;;
1370;SDS011;14306;49.942;11.570;2022-08-19T12:33:20;16.80;;;11.90;;
1370;SDS011;14306;49.942;11.570;2022-08-19T12:35:51;17.10;;;13.00;;
1370;SDS011;14306;49.942;11.570;2022-08-19T12:38:19;17.03;;;11.47;;
1370;SDS011;14306;49.942;11.570;2022-08-19T12:40:50;13.57;;;11.47;;
1370;SDS011;14306;49.942;11.570;2022-08-19T12:43:25;16.40;;;12.60;;
1370;SDS011;14306;49.942;11.570;2022-08-19T12:45:54;16.73;;;13.20;;
1370;SDS011;14306;49.942;11.570;2022-08-19T12:48:22;16.40;;;13.30;;
1370;SDS011;14306;49.942;11.570;2022-08-19T12:51:05;19.87;;;14.57;;
1370;SDS011;14306;49.942;11.570;2022-08-19T12:53:34;16.30;;;12.97;;
1370;SDS011;14306;49.942;11.570;2022-08-19T12:56:05;14.03;;;12.00;;
1370;SDS011;14306;49.942;11.570;2022-08-19T12:58:37;19.33;;;13.10;;
1370;SDS011;14306;49.942;11.570;2022-08-19T13:01:16;14.30;;;12.73;;
1370;SDS011;14306;49.942;11.570;2022-08-19T13:03:48;17.00;;;13.13;;
1370;SDS011;14306;49.942;11.570;2022-08-19T13:06:18;15.90;;;12.33;;
1370;SDS011;14306;49.942;11.570;2022-08-19T13:08:47;16.17;;;13.37;;
1370;SDS011;14306;49.942;11.570;2022-08-19T13:11:15;15.17;;;11.47;;
1370;SDS011;14306;49.942;11.570;2022-08-19T13:13:46;15.53;;;10.37;;
1370;SDS011;14306;49.942;11.570;2022-08-19T13:16:18;14.63;;;11.60;;
1370;SDS011;14306;49.942;11.570;2022-08-19T13:18:48;13.10;;;10.60;;
1370;SDS011;14306;49.942;11.570;2022-08-19T13:21:18;11.57;;;9.40;;
1370;SDS011;14306;49.942;11.570;2022-08-19T13:23:48;12.00;;;9.87;;
1370;SDS011;14306;49.942;11.570;2022-08-19T13:26:17;13.17;;;9.63;;
1370;SDS011;14306;49.942;11.570;2022-08-19T13:28:46;11.07;;;9.90;;
1370;SDS011;14306;49.942;11.570;2022-08-19T13:31:34;14.43;;;10.40;;
1370;SDS011;14306;49.942;11.570;2022-08-19T13:34:28;11.60;;;9.23;;
1370;SDS011;14306;49.942;11.570;2022-08-19T13:36:58;12.40;;;9.87;;
1370;SDS011;14306;49.942;11.570;2022-08-19T13:39:29;9.57;;;8.57;;
1370;SDS011;14306;49.942;11.570;2022-08-19T13:41:59;13.90;;;9.87;;
1370;SDS011;14306;49.942;11.570;2022-08-19T13:44:27;13.37;;;7.87;;
1370;SDS011;14306;49.942;11.570;2022-08-19T13:47:01;8.80;;;8.00;;
1370;SDS011;14306;49.942;11.570;2022-08-19T13:49:32;16.07;;;8.47;;
1370;SDS011;14306;49.942;11.570;2022-08-19T13:52:01;9.20;;;8.27;;
1370;SDS011;14306;49.942;11.570;2022-08-19T13:54:30;8.37;;;7.30;;
1370;SDS011;14306;49.942;11.570;2022-08-19T13:56:58;8.23;;;7.47;;
1370;SDS011;14306;49.942;11.570;2022-08-19T13:59:26;7.83;;;7.13;;
1370;SDS011;14306;49.942;11.570;2022-08-19T14:01:57;7.73;;;6.90;;
1370;SDS011;14306;49.942;11.570;2022-08-19T14:04:27;8.73;;;7.23;;
1370;SDS011;14306;49.942;11.570;2022-08-19T14:06:55;8.60;;;7.17;;
1370;SDS011;14306;49.942;11.570;2022-08-19T14:09:23;8.30;;;7.50;;
1370;SDS011;14306;49.942;11.570;2022-08-19T14:11:51;6.67;;;5.97;;
1370;SDS011;14306;49.942;11.570;2022-08-19T14:14:19;6.23;;;5.73;;
1370;SDS011;14306;49.942;11.570;2022-08-19T14:16:47;7.00;;;6.40;;
1370;SDS011;14306;49.942;11.570;2022-08-19T14:19:16;6.77;;;5.97;;
1370;SDS011;14306;49.942;11.570;2022-08-19T14:21:45;12.43;;;7.50;;
1370;SDS011;14306;49.942;11.570;2022-08-19T14:24:13;7.33;;;6.50;;
1370;SDS011;14306;49.942;11.570;2022-08-19T14:26:41;9.40;;;7.50;;
1370;SDS011;14306;49.942;11.570;2022-08-19T14:29:09;13.47;;;7.70;;
1370;SDS011;14306;49.942;11.570;2022-08-19T14:31:38;11.03;;;9.87;;
1370;SDS011;14306;49.942;11.570;2022-08-19T14:34:09;11.37;;;8.80;;
1370;SDS011;14306;49.942;11.570;2022-08-19T14:36:38;12.30;;;9.03;;
1370;SDS011;14306;49.942;11.570;2022-08-19T14:39:09;11.13;;;9.83;;
1370;SDS011;14306;49.942;11.570;2022-08-19T14:41:39;12.63;;;10.57;;
1370;SDS011;14306;49.942;11.570;2022-08-19T14:44:08;13.03;;;11.23;;
1370;SDS011;14306;49.942;11.570;2022-08-19T14:46:38;13.67;;;10.33;;
1370;SDS011;14306;49.942;11.570;2022-08-19T14:49:14;13.83;;;10.93;;